Accueil
METAR-TAF:

METAR-TAF

Aéroports :

Aéroport international Galileo-Galilei de Pise

Pise, Italie

latitude: 43-41N, longitude: 010-23E, altitude: 2 m

Observation

Le bulletin a été fait il y a 40 minutes, à 04:15 UTC
Vent 11 kt de est/sud-est
Température 17°C
Humidité 52%
Pression 1024 hPa
Visibilité 10 km ou plus
pas de nuages en-dessous de 1500 mètres et pas de cumulonimbus.

METAR: LIRP 250415Z 11011KT CAVOK 17/07 Q1024 NOSIG

Heure: 06:55 (04:55 UTC)

Prévision

Le bulletin a été fait il y a 5 heures et 55 minutes, à 23:00 UTC
Prévision valable du 25 à 00 UTC au 25 à 24 UTC
Vent 7 kt de sud-est
Visibilité 10 km ou plus
pas de nuages en-dessous de 1500 mètres et pas de cumulonimbus.
Evoluant progressivement
du 25 à 12 UTC au 25 à 14 UTC
Vent 10 kt de ouest/nord-ouest
Evoluant progressivement
du 25 à 18 UTC au 25 à 20 UTC
Vent 4 kt de est

TAF: LIRP 242300Z 2500/2524 14007KT CAVOK BECMG 2512/2514 30010KT BECMG 2518/2520 09004KT

Observations et prévisions météorologiques de plus de 4000 aéroports (messages METAR et TAF).

Les stations disponibles sont représentées par des disques jaunes et rouges sur la carte.

Passer la souris dessus pour voir le nom de la station.

Cliquer dessus pour voir les observations et prévisions météorologiques.

Pour changer de carte: cliquez sur les boutons verts avec une croix noire pour zoomer, sur le bouton vert avec un tiret pour effectuer un zoom arrière, ou sur les flèches vertes pour les cartes adjacentes.


METAR-TAF: